sensor_id;sensor_type;location;lat;lon;timestamp;P1;durP1;ratioP1;P2;durP2;ratioP2
50429;SDS011;36359;41.556;-8.418;2022-12-18T00:00:46;8.93;;;4.00;;
50429;SDS011;36359;41.556;-8.418;2022-12-18T00:03:13;5.55;;;3.08;;
50429;SDS011;36359;41.556;-8.418;2022-12-18T00:05:47;7.28;;;3.50;;
50429;SDS011;36359;41.556;-8.418;2022-12-18T00:08:13;7.00;;;3.95;;
50429;SDS011;36359;41.556;-8.418;2022-12-18T00:10:39;6.63;;;3.78;;
50429;SDS011;36359;41.556;-8.418;2022-12-18T00:13:05;11.90;;;4.65;;
50429;SDS011;36359;41.556;-8.418;2022-12-18T00:15:33;8.43;;;5.53;;
50429;SDS011;36359;41.556;-8.418;2022-12-18T00:17:59;10.70;;;5.40;;
50429;SDS011;36359;41.556;-8.418;2022-12-18T00:20:25;11.55;;;5.30;;
50429;SDS011;36359;41.556;-8.418;2022-12-18T00:22:54;11.52;;;5.15;;
50429;SDS011;36359;41.556;-8.418;2022-12-18T00:25:20;11.63;;;4.90;;
50429;SDS011;36359;41.556;-8.418;2022-12-18T00:27:46;9.98;;;4.45;;
50429;SDS011;36359;41.556;-8.418;2022-12-18T00:30:13;8.07;;;4.55;;
50429;SDS011;36359;41.556;-8.418;2022-12-18T00:32:38;8.68;;;4.72;;
50429;SDS011;36359;41.556;-8.418;2022-12-18T00:35:05;9.82;;;4.60;;
50429;SDS011;36359;41.556;-8.418;2022-12-18T00:37:33;10.32;;;5.50;;
50429;SDS011;36359;41.556;-8.418;2022-12-18T00:39:59;10.15;;;5.00;;
50429;SDS011;36359;41.556;-8.418;2022-12-18T00:42:27;9.75;;;5.25;;
50429;SDS011;36359;41.556;-8.418;2022-12-18T00:45:11;8.85;;;5.32;;
50429;SDS011;36359;41.556;-8.418;2022-12-18T00:47:37;9.40;;;5.57;;
50429;SDS011;36359;41.556;-8.418;2022-12-18T00:50:03;14.25;;;5.93;;
50429;SDS011;36359;41.556;-8.418;2022-12-18T00:52:29;7.93;;;5.32;;
50429;SDS011;36359;41.556;-8.418;2022-12-18T00:54:55;12.25;;;5.70;;
50429;SDS011;36359;41.556;-8.418;2022-12-18T00:57:21;11.43;;;5.18;;
50429;SDS011;36359;41.556;-8.418;2022-12-18T00:59:46;12.90;;;5.30;;
50429;SDS011;36359;41.556;-8.418;2022-12-18T01:02:12;10.52;;;5.65;;
50429;SDS011;36359;41.556;-8.418;2022-12-18T01:04:38;21.63;;;10.45;;
50429;SDS011;36359;41.556;-8.418;2022-12-18T01:07:03;21.92;;;9.98;;
50429;SDS011;36359;41.556;-8.418;2022-12-18T01:09:29;10.18;;;5.13;;
50429;SDS011;36359;41.556;-8.418;2022-12-18T01:11:55;12.00;;;6.45;;
50429;SDS011;36359;41.556;-8.418;2022-12-18T01:14:20;9.82;;;5.03;;
50429;SDS011;36359;41.556;-8.418;2022-12-18T01:16:46;9.05;;;4.32;;
50429;SDS011;36359;41.556;-8.418;2022-12-18T01:19:12;8.27;;;5.05;;
50429;SDS011;36359;41.556;-8.418;2022-12-18T01:21:38;15.20;;;6.78;;
50429;SDS011;36359;41.556;-8.418;2022-12-18T01:24:04;7.97;;;4.32;;
50429;SDS011;36359;41.556;-8.418;2022-12-18T01:26:30;9.77;;;5.10;;
50429;SDS011;36359;41.556;-8.418;2022-12-18T01:28:56;8.60;;;4.40;;
50429;SDS011;36359;41.556;-8.418;2022-12-18T01:31:23;8.80;;;4.32;;
50429;SDS011;36359;41.556;-8.418;2022-12-18T01:33:51;5.28;;;3.28;;
50429;SDS011;36359;41.556;-8.418;2022-12-18T01:36:22;6.35;;;3.42;;
50429;SDS011;36359;41.556;-8.418;2022-12-18T01:38:50;6.18;;;2.92;;
50429;SDS011;36359;41.556;-8.418;2022-12-18T01:41:19;8.73;;;2.42;;
50429;SDS011;36359;41.556;-8.418;2022-12-18T01:43:51;6.65;;;2.80;;
50429;SDS011;36359;41.556;-8.418;2022-12-18T01:46:18;4.28;;;2.42;;
50429;SDS011;36359;41.556;-8.418;2022-12-18T01:48:46;6.40;;;3.67;;
50429;SDS011;36359;41.556;-8.418;2022-12-18T01:51:14;7.78;;;2.90;;
50429;SDS011;36359;41.556;-8.418;2022-12-18T01:53:41;4.88;;;2.30;;
50429;SDS011;36359;41.556;-8.418;2022-12-18T01:56:11;5.88;;;2.95;;
50429;SDS011;36359;41.556;-8.418;2022-12-18T01:58:41;7.07;;;3.17;;
50429;SDS011;36359;41.556;-8.418;2022-12-18T02:01:14;4.78;;;2.42;;
50429;SDS011;36359;41.556;-8.418;2022-12-18T02:03:43;6.18;;;2.85;;
50429;SDS011;36359;41.556;-8.418;2022-12-18T02:06:12;5.60;;;2.40;;
50429;SDS011;36359;41.556;-8.418;2022-12-18T02:17:10;8.15;;;2.28;;
50429;SDS011;36359;41.556;-8.418;2022-12-18T02:25:21;6.25;;;2.88;;
50429;SDS011;36359;41.556;-8.418;2022-12-18T02:27:53;5.95;;;2.30;;
50429;SDS011;36359;41.556;-8.418;2022-12-18T02:30:24;4.93;;;2.08;;
50429;SDS011;36359;41.556;-8.418;2022-12-18T02:32:52;4.55;;;2.05;;
50429;SDS011;36359;41.556;-8.418;2022-12-18T02:35:23;5.03;;;2.30;;
50429;SDS011;36359;41.556;-8.418;2022-12-18T02:37:55;5.30;;;2.15;;
50429;SDS011;36359;41.556;-8.418;2022-12-18T02:40:22;8.27;;;3.20;;
50429;SDS011;36359;41.556;-8.418;2022-12-18T02:42:51;6.55;;;2.85;;
50429;SDS011;36359;41.556;-8.418;2022-12-18T02:45:19;5.53;;;2.70;;
50429;SDS011;36359;41.556;-8.418;2022-12-18T02:47:46;5.03;;;2.30;;
50429;SDS011;36359;41.556;-8.418;2022-12-18T02:50:22;6.40;;;2.00;;
50429;SDS011;36359;41.556;-8.418;2022-12-18T03:01:50;5.15;;;1.98;;
50429;SDS011;36359;41.556;-8.418;2022-12-18T03:04:24;5.90;;;1.80;;
50429;SDS011;36359;41.556;-8.418;2022-12-18T03:07:05;4.97;;;1.90;;
50429;SDS011;36359;41.556;-8.418;2022-12-18T03:09:35;5.18;;;2.45;;
50429;SDS011;36359;41.556;-8.418;2022-12-18T03:12:23;5.70;;;2.50;;
50429;SDS011;36359;41.556;-8.418;2022-12-18T03:17:56;6.00;;;2.60;;
50429;SDS011;36359;41.556;-8.418;2022-12-18T03:20:30;7.82;;;2.60;;
50429;SDS011;36359;41.556;-8.418;2022-12-18T03:23:21;6.03;;;2.70;;
50429;SDS011;36359;41.556;-8.418;2022-12-18T03:25:48;4.32;;;2.45;;
50429;SDS011;36359;41.556;-8.418;2022-12-18T03:28:19;4.88;;;2.08;;
50429;SDS011;36359;41.556;-8.418;2022-12-18T03:30:52;5.65;;;2.20;;
50429;SDS011;36359;41.556;-8.418;2022-12-18T03:33:27;4.65;;;2.30;;
50429;SDS011;36359;41.556;-8.418;2022-12-18T03:35:58;5.88;;;2.65;;
50429;SDS011;36359;41.556;-8.418;2022-12-18T03:38:24;5.15;;;2.35;;
50429;SDS011;36359;41.556;-8.418;2022-12-18T03:49:12;7.70;;;2.53;;
50429;SDS011;36359;41.556;-8.418;2022-12-18T03:51:50;6.03;;;2.60;;
50429;SDS011;36359;41.556;-8.418;2022-12-18T03:54:20;4.43;;;2.47;;
50429;SDS011;36359;41.556;-8.418;2022-12-18T03:57:04;4.40;;;2.33;;
50429;SDS011;36359;41.556;-8.418;2022-12-18T03:59:35;5.85;;;2.33;;
50429;SDS011;36359;41.556;-8.418;2022-12-18T04:02:03;6.95;;;2.17;;
50429;SDS011;36359;41.556;-8.418;2022-12-18T04:04:31;4.80;;;2.13;;
50429;SDS011;36359;41.556;-8.418;2022-12-18T04:07:02;7.55;;;2.22;;
50429;SDS011;36359;41.556;-8.418;2022-12-18T04:09:32;3.83;;;1.90;;
50429;SDS011;36359;41.556;-8.418;2022-12-18T04:12:00;3.30;;;1.67;;
50429;SDS011;36359;41.556;-8.418;2022-12-18T04:14:26;7.40;;;2.28;;
50429;SDS011;36359;41.556;-8.418;2022-12-18T04:16:54;5.43;;;2.00;;
50429;SDS011;36359;41.556;-8.418;2022-12-18T04:19:26;4.93;;;2.05;;
50429;SDS011;36359;41.556;-8.418;2022-12-18T04:21:52;3.67;;;1.77;;
50429;SDS011;36359;41.556;-8.418;2022-12-18T04:24:18;4.93;;;2.13;;
50429;SDS011;36359;41.556;-8.418;2022-12-18T04:26:53;6.22;;;2.33;;
50429;SDS011;36359;41.556;-8.418;2022-12-18T04:29:25;6.72;;;2.90;;
50429;SDS011;36359;41.556;-8.418;2022-12-18T04:31:51;4.07;;;2.08;;
50429;SDS011;36359;41.556;-8.418;2022-12-18T04:34:18;3.90;;;1.98;;
50429;SDS011;36359;41.556;-8.418;2022-12-18T04:36:48;6.88;;;2.03;;
50429;SDS011;36359;41.556;-8.418;2022-12-18T04:39:15;4.78;;;1.90;;
50429;SDS011;36359;41.556;-8.418;2022-12-18T04:41:43;3.97;;;1.92;;
50429;SDS011;36359;41.556;-8.418;2022-12-18T04:44:14;4.07;;;1.80;;
50429;SDS011;36359;41.556;-8.418;2022-12-18T04:46:40;5.40;;;1.73;;
50429;SDS011;36359;41.556;-8.418;2022-12-18T04:49:06;4.85;;;2.10;;
50429;SDS011;36359;41.556;-8.418;2022-12-18T04:51:32;4.43;;;2.00;;
50429;SDS011;36359;41.556;-8.418;2022-12-18T04:53:58;2.95;;;1.70;;
50429;SDS011;36359;41.556;-8.418;2022-12-18T04:56:23;3.92;;;1.70;;
50429;SDS011;36359;41.556;-8.418;2022-12-18T04:58:49;3.63;;;1.60;;
50429;SDS011;36359;41.556;-8.418;2022-12-18T05:01:16;5.00;;;1.80;;
50429;SDS011;36359;41.556;-8.418;2022-12-18T05:03:45;5.50;;;1.75;;
50429;SDS011;36359;41.556;-8.418;2022-12-18T05:06:11;6.28;;;1.70;;
50429;SDS011;36359;41.556;-8.418;2022-12-18T05:08:37;4.68;;;2.03;;
50429;SDS011;36359;41.556;-8.418;2022-12-18T05:11:04;5.05;;;1.73;;
50429;SDS011;36359;41.556;-8.418;2022-12-18T05:13:31;2.90;;;1.90;;
50429;SDS011;36359;41.556;-8.418;2022-12-18T05:15:58;3.28;;;1.60;;
50429;SDS011;36359;41.556;-8.418;2022-12-18T05:18:24;4.18;;;1.75;;
50429;SDS011;36359;41.556;-8.418;2022-12-18T05:20:50;3.90;;;1.92;;
50429;SDS011;36359;41.556;-8.418;2022-12-18T05:23:17;6.07;;;1.60;;
50429;SDS011;36359;41.556;-8.418;2022-12-18T05:25:46;5.22;;;1.50;;
50429;SDS011;36359;41.556;-8.418;2022-12-18T05:28:18;3.15;;;1.60;;
50429;SDS011;36359;41.556;-8.418;2022-12-18T05:30:47;3.20;;;1.65;;
50429;SDS011;36359;41.556;-8.418;2022-12-18T05:33:17;4.07;;;1.92;;
50429;SDS011;36359;41.556;-8.418;2022-12-18T05:35:43;5.32;;;1.52;;
50429;SDS011;36359;41.556;-8.418;2022-12-18T05:38:10;4.97;;;1.63;;
50429;SDS011;36359;41.556;-8.418;2022-12-18T05:40:36;4.10;;;1.23;;
50429;SDS011;36359;41.556;-8.418;2022-12-18T05:43:05;4.40;;;1.45;;
50429;SDS011;36359;41.556;-8.418;2022-12-18T05:45:30;3.25;;;1.55;;
50429;SDS011;36359;41.556;-8.418;2022-12-18T05:47:56;6.45;;;2.03;;
50429;SDS011;36359;41.556;-8.418;2022-12-18T05:50:22;3.88;;;1.55;;
50429;SDS011;36359;41.556;-8.418;2022-12-18T05:52:48;2.80;;;1.45;;
50429;SDS011;36359;41.556;-8.418;2022-12-18T05:55:13;4.03;;;1.40;;
50429;SDS011;36359;41.556;-8.418;2022-12-18T05:57:39;3.92;;;1.60;;
50429;SDS011;36359;41.556;-8.418;2022-12-18T06:00:05;6.10;;;1.75;;
50429;SDS011;36359;41.556;-8.418;2022-12-18T06:02:37;2.85;;;1.52;;
50429;SDS011;36359;41.556;-8.418;2022-12-18T06:05:03;4.55;;;1.80;;
50429;SDS011;36359;41.556;-8.418;2022-12-18T06:07:29;3.80;;;1.63;;
50429;SDS011;36359;41.556;-8.418;2022-12-18T06:09:55;2.55;;;1.27;;
50429;SDS011;36359;41.556;-8.418;2022-12-18T06:12:20;2.50;;;1.58;;
50429;SDS011;36359;41.556;-8.418;2022-12-18T06:14:46;6.18;;;1.90;;
50429;SDS011;36359;41.556;-8.418;2022-12-18T06:17:11;6.70;;;1.50;;
50429;SDS011;36359;41.556;-8.418;2022-12-18T06:19:37;3.10;;;1.40;;
50429;SDS011;36359;41.556;-8.418;2022-12-18T06:22:03;6.97;;;1.70;;
50429;SDS011;36359;41.556;-8.418;2022-12-18T06:24:29;3.70;;;1.27;;
50429;SDS011;36359;41.556;-8.418;2022-12-18T06:26:55;5.10;;;1.95;;
50429;SDS011;36359;41.556;-8.418;2022-12-18T06:29:20;3.10;;;1.58;;
50429;SDS011;36359;41.556;-8.418;2022-12-18T06:31:46;3.15;;;1.35;;
50429;SDS011;36359;41.556;-8.418;2022-12-18T06:34:12;4.10;;;1.55;;
50429;SDS011;36359;41.556;-8.418;2022-12-18T06:36:38;2.58;;;1.40;;
50429;SDS011;36359;41.556;-8.418;2022-12-18T06:39:03;3.03;;;1.10;;
50429;SDS011;36359;41.556;-8.418;2022-12-18T06:41:32;3.28;;;1.60;;
50429;SDS011;36359;41.556;-8.418;2022-12-18T06:43:58;4.22;;;1.27;;
50429;SDS011;36359;41.556;-8.418;2022-12-18T06:46:24;2.88;;;1.30;;
50429;SDS011;36359;41.556;-8.418;2022-12-18T06:48:49;3.05;;;1.38;;
50429;SDS011;36359;41.556;-8.418;2022-12-18T06:51:19;2.50;;;1.20;;
50429;SDS011;36359;41.556;-8.418;2022-12-18T06:53:45;1.70;;;1.00;;
50429;SDS011;36359;41.556;-8.418;2022-12-18T06:56:11;2.90;;;1.35;;
50429;SDS011;36359;41.556;-8.418;2022-12-18T06:58:38;2.67;;;1.25;;
50429;SDS011;36359;41.556;-8.418;2022-12-18T07:01:05;3.55;;;1.40;;
50429;SDS011;36359;41.556;-8.418;2022-12-18T07:03:32;4.25;;;1.20;;
50429;SDS011;36359;41.556;-8.418;2022-12-18T07:05:58;2.97;;;1.23;;
50429;SDS011;36359;41.556;-8.418;2022-12-18T07:08:24;2.53;;;1.30;;
50429;SDS011;36359;41.556;-8.418;2022-12-18T07:10:50;3.80;;;1.30;;
50429;SDS011;36359;41.556;-8.418;2022-12-18T07:13:16;5.57;;;1.38;;
50429;SDS011;36359;41.556;-8.418;2022-12-18T07:15:42;3.83;;;1.52;;
50429;SDS011;36359;41.556;-8.418;2022-12-18T07:18:09;3.80;;;1.30;;
50429;SDS011;36359;41.556;-8.418;2022-12-18T07:20:34;3.33;;;1.20;;
50429;SDS011;36359;41.556;-8.418;2022-12-18T07:23:03;4.90;;;1.38;;
50429;SDS011;36359;41.556;-8.418;2022-12-18T07:25:33;3.25;;;1.40;;
50429;SDS011;36359;41.556;-8.418;2022-12-18T07:28:00;3.70;;;1.10;;
50429;SDS011;36359;41.556;-8.418;2022-12-18T07:30:27;3.38;;;1.17;;
50429;SDS011;36359;41.556;-8.418;2022-12-18T07:32:52;2.22;;;1.20;;
50429;SDS011;36359;41.556;-8.418;2022-12-18T07:35:18;2.75;;;1.17;;
50429;SDS011;36359;41.556;-8.418;2022-12-18T07:37:44;2.88;;;1.30;;
50429;SDS011;36359;41.556;-8.418;2022-12-18T07:40:10;2.25;;;1.08;;
50429;SDS011;36359;41.556;-8.418;2022-12-18T07:42:36;2.20;;;1.00;;
50429;SDS011;36359;41.556;-8.418;2022-12-18T07:45:02;3.05;;;1.42;;
50429;SDS011;36359;41.556;-8.418;2022-12-18T07:47:35;3.42;;;1.30;;
50429;SDS011;36359;41.556;-8.418;2022-12-18T07:50:02;1.98;;;1.05;;
50429;SDS011;36359;41.556;-8.418;2022-12-18T07:52:29;3.60;;;1.10;;
50429;SDS011;36359;41.556;-8.418;2022-12-18T07:54:55;2.55;;;1.40;;
50429;SDS011;36359;41.556;-8.418;2022-12-18T07:57:21;2.53;;;1.00;;
50429;SDS011;36359;41.556;-8.418;2022-12-18T07:59:46;3.88;;;1.27;;
50429;SDS011;36359;41.556;-8.418;2022-12-18T08:02:12;3.42;;;1.10;;
50429;SDS011;36359;41.556;-8.418;2022-12-18T08:04:38;3.28;;;1.30;;
50429;SDS011;36359;41.556;-8.418;2022-12-18T08:07:03;2.55;;;1.20;;
50429;SDS011;36359;41.556;-8.418;2022-12-18T08:09:29;4.13;;;1.20;;
50429;SDS011;36359;41.556;-8.418;2022-12-18T08:11:55;2.25;;;1.30;;
50429;SDS011;36359;41.556;-8.418;2022-12-18T08:14:21;3.83;;;1.30;;
50429;SDS011;36359;41.556;-8.418;2022-12-18T08:16:46;3.63;;;1.10;;
50429;SDS011;36359;41.556;-8.418;2022-12-18T08:19:12;2.97;;;1.10;;
50429;SDS011;36359;41.556;-8.418;2022-12-18T08:21:38;2.88;;;1.10;;
50429;SDS011;36359;41.556;-8.418;2022-12-18T08:24:04;2.05;;;0.93;;
50429;SDS011;36359;41.556;-8.418;2022-12-18T08:26:30;3.30;;;1.23;;
50429;SDS011;36359;41.556;-8.418;2022-12-18T08:28:56;6.72;;;1.20;;
50429;SDS011;36359;41.556;-8.418;2022-12-18T08:31:23;3.60;;;1.40;;
50429;SDS011;36359;41.556;-8.418;2022-12-18T08:33:50;3.45;;;1.20;;
50429;SDS011;36359;41.556;-8.418;2022-12-18T08:36:17;2.83;;;1.20;;
50429;SDS011;36359;41.556;-8.418;2022-12-18T08:38:43;4.53;;;0.95;;
50429;SDS011;36359;41.556;-8.418;2022-12-18T08:41:10;3.92;;;1.15;;
50429;SDS011;36359;41.556;-8.418;2022-12-18T08:43:37;1.65;;;0.90;;
50429;SDS011;36359;41.556;-8.418;2022-12-18T08:46:30;2.42;;;1.00;;
50429;SDS011;36359;41.556;-8.418;2022-12-18T08:49:00;2.05;;;0.95;;
50429;SDS011;36359;41.556;-8.418;2022-12-18T08:51:26;2.15;;;0.95;;
50429;SDS011;36359;41.556;-8.418;2022-12-18T08:53:52;3.55;;;1.25;;
50429;SDS011;36359;41.556;-8.418;2022-12-18T08:56:18;2.78;;;1.00;;
50429;SDS011;36359;41.556;-8.418;2022-12-18T08:58:43;5.47;;;1.10;;
50429;SDS011;36359;41.556;-8.418;2022-12-18T09:01:10;2.67;;;1.00;;
50429;SDS011;36359;41.556;-8.418;2022-12-18T09:03:37;5.82;;;1.30;;
50429;SDS011;36359;41.556;-8.418;2022-12-18T09:06:03;2.67;;;1.13;;
50429;SDS011;36359;41.556;-8.418;2022-12-18T09:08:29;3.33;;;1.10;;
50429;SDS011;36359;41.556;-8.418;2022-12-18T09:10:55;2.38;;;1.20;;
50429;SDS011;36359;41.556;-8.418;2022-12-18T09:13:21;3.33;;;1.08;;
50429;SDS011;36359;41.556;-8.418;2022-12-18T09:15:48;5.35;;;1.30;;
50429;SDS011;36359;41.556;-8.418;2022-12-18T09:18:16;2.17;;;1.00;;
50429;SDS011;36359;41.556;-8.418;2022-12-18T09:20:43;2.28;;;1.00;;
50429;SDS011;36359;41.556;-8.418;2022-12-18T09:23:09;3.33;;;1.00;;
50429;SDS011;36359;41.556;-8.418;2022-12-18T09:25:35;2.67;;;1.00;;
50429;SDS011;36359;41.556;-8.418;2022-12-18T09:28:03;3.97;;;1.10;;
50429;SDS011;36359;41.556;-8.418;2022-12-18T09:30:31;3.03;;;1.00;;
50429;SDS011;36359;41.556;-8.418;2022-12-18T09:32:59;3.22;;;1.17;;
50429;SDS011;36359;41.556;-8.418;2022-12-18T09:35:25;1.65;;;1.10;;
50429;SDS011;36359;41.556;-8.418;2022-12-18T09:37:53;4.75;;;1.42;;
50429;SDS011;36359;41.556;-8.418;2022-12-18T09:40:21;3.00;;;1.10;;
50429;SDS011;36359;41.556;-8.418;2022-12-18T09:42:54;3.83;;;1.20;;
50429;SDS011;36359;41.556;-8.418;2022-12-18T09:45:22;2.67;;;1.05;;
50429;SDS011;36359;41.556;-8.418;2022-12-18T09:47:49;2.83;;;1.10;;
50429;SDS011;36359;41.556;-8.418;2022-12-18T09:52:51;1.98;;;0.73;;
50429;SDS011;36359;41.556;-8.418;2022-12-18T09:55:23;2.55;;;1.00;;
50429;SDS011;36359;41.556;-8.418;2022-12-18T09:58:05;3.88;;;1.10;;
50429;SDS011;36359;41.556;-8.418;2022-12-18T10:00:35;3.88;;;1.00;;
50429;SDS011;36359;41.556;-8.418;2022-12-18T10:03:03;3.63;;;1.55;;
50429;SDS011;36359;41.556;-8.418;2022-12-18T10:10:53;1.77;;;0.73;;
50429;SDS011;36359;41.556;-8.418;2022-12-18T10:13:39;2.83;;;1.00;;
50429;SDS011;36359;41.556;-8.418;2022-12-18T10:16:12;3.10;;;1.00;;
50429;SDS011;36359;41.556;-8.418;2022-12-18T10:27:15;3.08;;;1.00;;
50429;SDS011;36359;41.556;-8.418;2022-12-18T10:29:42;4.82;;;1.20;;
50429;SDS011;36359;41.556;-8.418;2022-12-18T10:32:13;2.55;;;1.17;;
50429;SDS011;36359;41.556;-8.418;2022-12-18T10:34:50;2.70;;;0.90;;
50429;SDS011;36359;41.556;-8.418;2022-12-18T10:37:19;2.78;;;1.08;;
50429;SDS011;36359;41.556;-8.418;2022-12-18T10:39:46;1.75;;;0.90;;
50429;SDS011;36359;41.556;-8.418;2022-12-18T10:42:32;2.13;;;1.00;;
50429;SDS011;36359;41.556;-8.418;2022-12-18T10:45:03;2.67;;;1.33;;
50429;SDS011;36359;41.556;-8.418;2022-12-18T10:47:49;2.38;;;0.90;;
50429;SDS011;36359;41.556;-8.418;2022-12-18T10:52:56;2.78;;;1.00;;
50429;SDS011;36359;41.556;-8.418;2022-12-18T10:55:25;3.47;;;1.27;;
50429;SDS011;36359;41.556;-8.418;2022-12-18T10:57:57;4.57;;;1.60;;
50429;SDS011;36359;41.556;-8.418;2022-12-18T11:01:17;2.65;;;1.00;;
50429;SDS011;36359;41.556;-8.418;2022-12-18T11:06:20;5.07;;;1.55;;
50429;SDS011;36359;41.556;-8.418;2022-12-18T11:08:59;2.13;;;0.85;;
50429;SDS011;36359;41.556;-8.418;2022-12-18T11:11:28;4.40;;;1.65;;
50429;SDS011;36359;41.556;-8.418;2022-12-18T11:13:59;3.55;;;1.15;;
50429;SDS011;36359;41.556;-8.418;2022-12-18T11:16:29;3.85;;;1.30;;
50429;SDS011;36359;41.556;-8.418;2022-12-18T11:19:20;4.35;;;1.23;;
50429;SDS011;36359;41.556;-8.418;2022-12-18T11:21:47;4.55;;;1.25;;
50429;SDS011;36359;41.556;-8.418;2022-12-18T11:24:20;2.47;;;0.95;;
50429;SDS011;36359;41.556;-8.418;2022-12-18T11:26:58;2.67;;;1.13;;
50429;SDS011;36359;41.556;-8.418;2022-12-18T11:29:31;4.53;;;1.13;;
50429;SDS011;36359;41.556;-8.418;2022-12-18T11:32:19;3.38;;;1.30;;
50429;SDS011;36359;41.556;-8.418;2022-12-18T11:37:40;2.70;;;1.35;;
50429;SDS011;36359;41.556;-8.418;2022-12-18T11:40:14;3.05;;;1.38;;
50429;SDS011;36359;41.556;-8.418;2022-12-18T11:45:46;3.33;;;1.23;;
50429;SDS011;36359;41.556;-8.418;2022-12-18T11:48:57;4.53;;;1.30;;
50429;SDS011;36359;41.556;-8.418;2022-12-18T11:51:09;3.17;;;1.30;;
50429;SDS011;36359;41.556;-8.418;2022-12-18T11:53:43;2.95;;;1.30;;
50429;SDS011;36359;41.556;-8.418;2022-12-18T12:02:17;2.88;;;1.00;;
50429;SDS011;36359;41.556;-8.418;2022-12-18T12:10:58;2.35;;;1.00;;
50429;SDS011;36359;41.556;-8.418;2022-12-18T12:13:40;2.30;;;1.00;;
50429;SDS011;36359;41.556;-8.418;2022-12-18T12:16:25;3.42;;;1.40;;
50429;SDS011;36359;41.556;-8.418;2022-12-18T12:19:12;3.72;;;1.02;;
50429;SDS011;36359;41.556;-8.418;2022-12-18T12:24:26;2.25;;;1.10;;
50429;SDS011;36359;41.556;-8.418;2022-12-18T12:29:52;3.17;;;1.40;;
50429;SDS011;36359;41.556;-8.418;2022-12-18T12:32:35;5.35;;;1.63;;
50429;SDS011;36359;41.556;-8.418;2022-12-18T12:35:36;3.25;;;1.25;;
50429;SDS011;36359;41.556;-8.418;2022-12-18T12:38:11;2.22;;;1.15;;
50429;SDS011;36359;41.556;-8.418;2022-12-18T12:43:48;3.13;;;1.05;;
50429;SDS011;36359;41.556;-8.418;2022-12-18T12:46:15;3.38;;;1.60;;
50429;SDS011;36359;41.556;-8.418;2022-12-18T12:48:47;4.20;;;1.75;;
50429;SDS011;36359;41.556;-8.418;2022-12-18T12:51:21;4.55;;;1.73;;
50429;SDS011;36359;41.556;-8.418;2022-12-18T12:53:50;4.00;;;1.30;;
50429;SDS011;36359;41.556;-8.418;2022-12-18T12:56:20;4.40;;;1.30;;
50429;SDS011;36359;41.556;-8.418;2022-12-18T13:07:06;4.10;;;1.55;;
50429;SDS011;36359;41.556;-8.418;2022-12-18T13:20:36;2.20;;;1.00;;
50429;SDS011;36359;41.556;-8.418;2022-12-18T13:34:18;5.00;;;1.33;;
50429;SDS011;36359;41.556;-8.418;2022-12-18T13:36:45;2.70;;;1.17;;
50429;SDS011;36359;41.556;-8.418;2022-12-18T13:39:21;4.72;;;1.20;;
50429;SDS011;36359;41.556;-8.418;2022-12-18T13:41:50;3.08;;;1.48;;
50429;SDS011;36359;41.556;-8.418;2022-12-18T13:44:37;4.10;;;1.60;;
50429;SDS011;36359;41.556;-8.418;2022-12-18T13:47:27;3.13;;;1.17;;
50429;SDS011;36359;41.556;-8.418;2022-12-18T13:49:58;4.03;;;1.70;;
50429;SDS011;36359;41.556;-8.418;2022-12-18T13:52:26;3.08;;;1.45;;
50429;SDS011;36359;41.556;-8.418;2022-12-18T13:54:57;3.55;;;1.20;;
50429;SDS011;36359;41.556;-8.418;2022-12-18T13:57:27;2.30;;;1.27;;
50429;SDS011;36359;41.556;-8.418;2022-12-18T13:59:55;3.95;;;1.45;;
50429;SDS011;36359;41.556;-8.418;2022-12-18T14:02:22;3.70;;;1.20;;
50429;SDS011;36359;41.556;-8.418;2022-12-18T14:04:50;3.20;;;1.23;;
50429;SDS011;36359;41.556;-8.418;2022-12-18T14:07:26;2.35;;;1.15;;
50429;SDS011;36359;41.556;-8.418;2022-12-18T14:09:55;2.10;;;1.23;;
50429;SDS011;36359;41.556;-8.418;2022-12-18T14:12:37;2.83;;;1.25;;
50429;SDS011;36359;41.556;-8.418;2022-12-18T14:20:24;3.72;;;1.40;;
50429;SDS011;36359;41.556;-8.418;2022-12-18T14:34:52;3.97;;;1.20;;
50429;SDS011;36359;41.556;-8.418;2022-12-18T14:37:23;3.80;;;1.73;;
50429;SDS011;36359;41.556;-8.418;2022-12-18T14:42:23;3.95;;;1.20;;
50429;SDS011;36359;41.556;-8.418;2022-12-18T14:47:59;3.92;;;1.25;;
50429;SDS011;36359;41.556;-8.418;2022-12-18T14:50:26;4.10;;;1.02;;
50429;SDS011;36359;41.556;-8.418;2022-12-18T14:52:51;2.63;;;1.13;;
50429;SDS011;36359;41.556;-8.418;2022-12-18T14:55:18;3.03;;;1.25;;
50429;SDS011;36359;41.556;-8.418;2022-12-18T14:57:46;2.70;;;1.10;;
50429;SDS011;36359;41.556;-8.418;2022-12-18T15:00:20;2.08;;;1.20;;
50429;SDS011;36359;41.556;-8.418;2022-12-18T15:02:48;3.25;;;1.33;;
50429;SDS011;36359;41.556;-8.418;2022-12-18T15:05:25;3.67;;;1.40;;
50429;SDS011;36359;41.556;-8.418;2022-12-18T15:07:54;2.33;;;1.15;;
50429;SDS011;36359;41.556;-8.418;2022-12-18T15:10:25;2.83;;;1.00;;
50429;SDS011;36359;41.556;-8.418;2022-12-18T15:18:03;3.00;;;1.90;;
50429;SDS011;36359;41.556;-8.418;2022-12-18T15:20:33;3.15;;;1.70;;
50429;SDS011;36359;41.556;-8.418;2022-12-18T15:23:17;2.63;;;1.40;;
50429;SDS011;36359;41.556;-8.418;2022-12-18T15:26:03;4.45;;;1.85;;
50429;SDS011;36359;41.556;-8.418;2022-12-18T15:28:33;3.63;;;1.30;;
50429;SDS011;36359;41.556;-8.418;2022-12-18T15:33:40;3.15;;;1.40;;
50429;SDS011;36359;41.556;-8.418;2022-12-18T15:36:10;3.17;;;1.77;;
50429;SDS011;36359;41.556;-8.418;2022-12-18T15:38:37;3.05;;;1.80;;
50429;SDS011;36359;41.556;-8.418;2022-12-18T15:41:13;3.13;;;1.35;;
50429;SDS011;36359;41.556;-8.418;2022-12-18T15:43:40;2.00;;;1.30;;
50429;SDS011;36359;41.556;-8.418;2022-12-18T15:46:09;2.78;;;1.30;;
50429;SDS011;36359;41.556;-8.418;2022-12-18T15:51:17;3.05;;;1.67;;
50429;SDS011;36359;41.556;-8.418;2022-12-18T15:53:58;2.30;;;1.17;;
50429;SDS011;36359;41.556;-8.418;2022-12-18T15:56:27;2.97;;;1.17;;
50429;SDS011;36359;41.556;-8.418;2022-12-18T15:59:15;2.40;;;1.00;;
50429;SDS011;36359;41.556;-8.418;2022-12-18T16:01:43;3.33;;;1.45;;
50429;SDS011;36359;41.556;-8.418;2022-12-18T16:04:11;3.80;;;1.20;;
50429;SDS011;36359;41.556;-8.418;2022-12-18T16:06:38;4.45;;;1.48;;
50429;SDS011;36359;41.556;-8.418;2022-12-18T16:09:07;2.78;;;1.20;;
50429;SDS011;36359;41.556;-8.418;2022-12-18T16:11:34;4.20;;;1.38;;
50429;SDS011;36359;41.556;-8.418;2022-12-18T16:16:44;2.38;;;1.30;;
50429;SDS011;36359;41.556;-8.418;2022-12-18T16:19:11;2.58;;;1.20;;
50429;SDS011;36359;41.556;-8.418;2022-12-18T16:21:37;3.35;;;1.00;;
50429;SDS011;36359;41.556;-8.418;2022-12-18T16:24:03;1.63;;;0.90;;
50429;SDS011;36359;41.556;-8.418;2022-12-18T16:26:29;3.28;;;1.23;;
50429;SDS011;36359;41.556;-8.418;2022-12-18T16:28:54;2.75;;;1.20;;
50429;SDS011;36359;41.556;-8.418;2022-12-18T16:31:20;2.42;;;1.30;;
50429;SDS011;36359;41.556;-8.418;2022-12-18T16:33:46;3.58;;;1.63;;
50429;SDS011;36359;41.556;-8.418;2022-12-18T16:36:11;2.42;;;1.48;;
50429;SDS011;36359;41.556;-8.418;2022-12-18T16:38:37;3.00;;;1.42;;
50429;SDS011;36359;41.556;-8.418;2022-12-18T16:41:06;2.22;;;1.02;;
50429;SDS011;36359;41.556;-8.418;2022-12-18T16:43:59;3.90;;;1.30;;
50429;SDS011;36359;41.556;-8.418;2022-12-18T16:46:25;4.75;;;2.40;;
50429;SDS011;36359;41.556;-8.418;2022-12-18T16:48:51;2.67;;;1.50;;
50429;SDS011;36359;41.556;-8.418;2022-12-18T16:51:16;2.03;;;1.20;;
50429;SDS011;36359;41.556;-8.418;2022-12-18T16:53:42;3.10;;;1.13;;
50429;SDS011;36359;41.556;-8.418;2022-12-18T16:56:08;2.63;;;1.40;;
50429;SDS011;36359;41.556;-8.418;2022-12-18T16:58:33;4.13;;;1.10;;
50429;SDS011;36359;41.556;-8.418;2022-12-18T17:01:01;3.00;;;1.30;;
50429;SDS011;36359;41.556;-8.418;2022-12-18T17:03:32;3.05;;;1.23;;
50429;SDS011;36359;41.556;-8.418;2022-12-18T17:06:01;3.70;;;1.60;;
50429;SDS011;36359;41.556;-8.418;2022-12-18T17:08:28;3.72;;;1.40;;
50429;SDS011;36359;41.556;-8.418;2022-12-18T17:10:54;1.63;;;0.93;;
50429;SDS011;36359;41.556;-8.418;2022-12-18T17:13:22;2.63;;;1.10;;
50429;SDS011;36359;41.556;-8.418;2022-12-18T17:15:51;2.15;;;1.20;;